Time;durP1;ratioP1;P1;durP2;ratioP2;P2;SDS_P1;SDS_P2;PMS_P1;PMS_P2;Temp;Humidity;BMP_temperature;BMP_pressure;BME280_temperature;BME280_humidity;BME280_pressure;Samples;Min_cycle;Max_cycle;Signal;HPM_P1;HPM_P2
2022/12/04 00:01:30;;;;;;;97.53;49.63;;;;;;;0.26;75.84;102471.95;1790771;79;21230;-86
2022/12/04 00:03:59;;;;;;;87.10;46.53;;;;;;;0.26;75.84;102470.27;1788629;78;21390;-85
2022/12/04 00:06:26;;;;;;;94.28;50.08;;;;;;;0.29;75.85;102474.45;1797116;79;21192;-88
2022/12/04 00:08:53;;;;;;;99.35;52.27;;;;;;;0.32;75.82;102481.59;1792646;79;21062;-85
2022/12/04 00:11:28;;;;;;;98.25;52.10;;;;;;;0.30;75.80;102474.99;1782386;79;21990;-85
2022/12/04 00:13:55;;;;;;;107.55;52.67;;;;;;;0.33;75.86;102480.84;1792123;79;21060;-84
2022/12/04 00:16:24;;;;;;;110.83;55.55;;;;;;;0.33;75.82;102484.33;1805453;77;21048;-88
2022/12/04 00:18:53;;;;;;;110.48;54.15;;;;;;;0.30;75.69;102486.66;1783503;79;21105;-87
2022/12/04 00:21:22;;;;;;;114.35;55.12;;;;;;;0.30;75.84;102487.01;1817715;77;21323;-90
2022/12/04 00:23:50;;;;;;;112.15;55.28;;;;;;;0.33;75.86;102488.61;1790547;78;22463;-85
2022/12/04 00:26:26;;;;;;;99.75;52.62;;;;;;;0.35;75.95;102489.66;1805292;79;21086;-89
2022/12/04 00:28:55;;;;;;;117.05;60.03;;;;;;;0.36;75.90;102483.73;1806612;78;21088;-86
2022/12/04 00:31:26;;;;;;;109.03;55.12;;;;;;;0.36;75.88;102487.22;1806742;79;21051;-86
2022/12/04 00:33:52;;;;;;;117.57;56.63;;;;;;;0.36;75.83;102482.43;1805670;78;21079;-86
2022/12/04 00:36:27;;;;;;;101.65;50.38;;;;;;;0.39;75.92;102486.58;1806033;78;21791;-89
2022/12/04 00:38:58;;;;;;;109.65;54.30;;;;;;;0.41;75.88;102481.16;1812118;77;21511;-85
2022/12/04 00:41:29;;;;;;;98.58;52.25;;;;;;;0.40;75.88;102478.06;1809628;77;21101;-87
2022/12/04 00:43:58;;;;;;;102.82;52.03;;;;;;;0.41;75.80;102478.96;1807765;79;21082;-87
2022/12/04 00:46:25;;;;;;;97.67;51.42;;;;;;;0.40;75.85;102482.34;1810729;79;21054;-90
2022/12/04 00:48:54;;;;;;;101.22;51.42;;;;;;;0.39;75.84;102473.63;1807032;79;21757;-87
2022/12/04 00:51:23;;;;;;;98.80;51.88;;;;;;;0.41;75.95;102475.97;1806531;79;21556;-88
2022/12/04 00:53:54;;;;;;;96.20;50.40;;;;;;;0.44;75.94;102475.38;1812743;77;21099;-87
2022/12/04 00:56:26;;;;;;;96.10;51.28;;;;;;;0.45;75.86;102472.00;1806773;79;21027;-87
2022/12/04 00:59:00;;;;;;;101.85;52.35;;;;;;;0.43;75.87;102470.55;1805270;78;21041;-85
2022/12/04 01:01:27;;;;;;;98.82;51.60;;;;;;;0.37;75.97;102451.46;1806037;79;21927;-85
2022/12/04 01:03:54;;;;;;;99.32;49.42;;;;;;;0.48;75.93;102476.18;1806173;78;21623;-85
2022/12/04 01:06:29;;;;;;;95.30;49.98;;;;;;;0.50;75.91;102475.55;1807322;79;21591;-83
2022/12/04 01:08:56;;;;;;;97.45;50.65;;;;;;;0.50;75.89;102471.66;1807116;77;21678;-83
2022/12/04 01:11:24;;;;;;;92.08;50.03;;;;;;;0.52;75.92;102467.52;1805876;79;21067;-84
2022/12/04 01:13:52;;;;;;;97.20;50.20;;;;;;;0.54;75.91;102464.69;1806558;79;22475;-84
2022/12/04 01:16:23;;;;;;;96.92;51.20;;;;;;;0.57;75.91;102460.20;1807632;77;21048;-84
2022/12/04 01:18:50;;;;;;;95.12;50.25;;;;;;;0.58;75.95;102462.00;1804972;79;21068;-84
2022/12/04 01:21:19;;;;;;;91.42;50.23;;;;;;;0.60;75.86;102463.05;1809870;77;21036;-83
2022/12/04 01:23:45;;;;;;;93.33;52.00;;;;;;;0.56;75.83;102458.00;1812149;77;21020;-83
2022/12/04 01:26:14;;;;;;;93.27;49.95;;;;;;;0.57;75.80;102464.98;1805633;79;22328;-84
2022/12/04 01:28:40;;;;;;;95.15;50.85;;;;;;;0.55;75.82;102463.94;1807106;78;21111;-84
2022/12/04 01:31:13;;;;;;;91.17;50.60;;;;;;;0.56;75.87;102470.95;1807351;79;21115;-84
2022/12/04 01:33:40;;;;;;;89.95;49.90;;;;;;;0.48;75.81;102457.65;1820833;77;21022;-84
2022/12/04 01:36:09;;;;;;;96.22;50.58;;;;;;;0.55;75.89;102467.82;1815087;77;21669;-84
2022/12/04 01:38:36;;;;;;;93.12;50.65;;;;;;;0.56;75.99;102469.66;1805474;78;21758;-84
2022/12/04 01:41:03;;;;;;;91.05;48.30;;;;;;;0.61;76.01;102466.58;1819782;77;21030;-83
2022/12/04 01:43:30;;;;;;;95.47;49.23;;;;;;;0.62;76.01;102465.78;1806373;77;21068;-87
2022/12/04 01:45:59;;;;;;;94.40;49.60;;;;;;;0.65;76.01;102464.78;1807063;79;21453;-88
2022/12/04 01:48:38;;;;;;;90.90;49.08;;;;;;;0.66;75.96;102458.85;1808893;79;21722;-88
2022/12/04 01:51:22;;;;;;;88.37;48.85;;;;;;;0.64;75.92;102461.30;1810972;77;21915;-85
2022/12/04 01:53:58;;;;;;;86.87;48.17;;;;;;;0.65;75.89;102456.62;1802665;79;21064;-85
2022/12/04 01:56:30;;;;;;;90.32;48.52;;;;;;;0.66;75.92;102445.89;1805544;79;21044;-89
2022/12/04 01:58:57;;;;;;;88.40;49.15;;;;;;;0.66;76.07;102448.09;1795008;79;21042;-88
2022/12/04 02:01:24;;;;;;;93.60;50.10;;;;;;;0.70;76.11;102445.40;1807123;79;21562;-84
2022/12/04 02:03:51;;;;;;;83.40;46.40;;;;;;;0.74;76.13;102442.31;1808117;79;22525;-85
2022/12/04 02:06:18;;;;;;;88.10;48.98;;;;;;;0.76;76.12;102435.19;1804611;78;21051;-88
2022/12/04 02:08:45;;;;;;;95.67;50.95;;;;;;;0.77;76.04;102434.44;1814777;77;21056;-84
2022/12/04 02:11:38;;;;;;;85.50;48.75;;;;;;;0.73;75.87;102429.75;1806281;79;21059;-85
2022/12/04 02:14:34;;;;;;;86.60;48.35;;;;;;;0.64;75.80;102429.27;1807155;79;21027;-85
2022/12/04 02:17:15;;;;;;;87.67;47.70;;;;;;;0.61;75.95;102431.59;1803565;77;21799;-83
2022/12/04 02:20:16;;;;;;;81.92;45.40;;;;;;;0.61;76.03;102432.89;1749081;78;21096;-85
2022/12/04 02:23:13;;;;;;;86.55;44.95;;;;;;;0.63;76.21;102437.83;1764128;81;21031;-88
2022/12/04 02:26:54;;;;;;;81.87;45.45;;;;;;;0.69;76.31;102439.67;1763480;81;21027;-90
2022/12/04 02:29:53;;;;;;;86.85;43.58;;;;;;;0.70;76.32;102435.94;1766521;81;22349;-89
2022/12/04 02:32:43;;;;;;;81.00;44.45;;;;;;;0.73;76.29;102429.75;1756147;81;21797;-87
2022/12/04 02:35:32;;;;;;;80.30;43.38;;;;;;;0.77;76.31;102440.02;1755120;81;21052;-87
2022/12/04 02:38:17;;;;;;;79.15;43.85;;;;;;;0.79;76.36;102443.66;1736050;81;21280;-87
2022/12/04 02:41:12;;;;;;;82.35;44.83;;;;;;;0.80;76.28;102444.16;1735863;81;21067;-87
2022/12/04 02:43:43;;;;;;;82.85;44.48;;;;;;;0.77;76.26;102441.31;1763726;81;21635;-87
2022/12/04 02:46:47;;;;;;;75.08;40.92;;;;;;;0.78;76.37;102438.83;1761693;81;21761;-89
2022/12/04 02:49:20;;;;;;;;;;;;;;;0.81;76.39;102440.81;1743494;81;21061;-84
2022/12/04 02:51:50;;;;;;;81.30;42.60;;;;;;;0.85;76.52;102432.54;1743010;81;20532;-84
2022/12/04 02:54:22;;;;;;;75.87;42.65;;;;;;;0.86;76.40;102429.55;1746005;81;21186;-84
2022/12/04 02:56:55;;;;;;;74.12;42.75;;;;;;;0.84;76.33;102424.61;1761501;80;21047;-84
2022/12/04 02:59:38;;;;;;;85.22;45.50;;;;;;;0.83;76.40;102418.92;1758760;81;21772;-85
2022/12/04 03:02:34;;;;;;;80.20;43.25;;;;;;;0.83;76.45;102420.22;1723941;81;21082;-82
2022/12/04 03:05:06;;;;;;;83.07;44.93;;;;;;;0.85;76.46;102419.58;1747508;81;21058;-86
2022/12/04 03:07:54;;;;;;;80.20;44.80;;;;;;;0.80;76.40;102422.13;1760898;81;21977;-83
2022/12/04 03:10:32;;;;;;;76.95;43.05;;;;;;;0.76;76.35;102423.52;1762361;81;21007;-87
2022/12/04 03:13:25;;;;;;;74.92;42.93;;;;;;;0.75;76.55;102421.72;1744980;81;22010;-86
2022/12/04 03:16:09;;;;;;;76.87;43.42;;;;;;;0.81;76.74;102425.26;1755856;81;21045;-84
2022/12/04 03:18:48;;;;;;;79.53;42.75;;;;;;;0.86;76.71;102422.67;1810873;78;21049;-84
2022/12/04 03:21:17;;;;;;;73.15;42.38;;;;;;;0.89;76.70;102418.17;1814279;78;21058;-84
2022/12/04 03:23:47;;;;;;;79.97;44.40;;;;;;;0.90;76.73;102416.09;1773989;79;21081;-84
2022/12/04 03:27:10;;;;;;;81.35;43.80;;;;;;;0.92;76.79;102417.13;1804736;78;21953;-87
2022/12/04 03:29:46;;;;;;;81.22;42.15;;;;;;;0.92;76.73;102417.13;1707820;82;21105;-84
2022/12/04 03:32:31;;;;;;;79.00;43.38;;;;;;;0.94;76.86;102423.00;1692168;84;21601;-84
2022/12/04 03:35:20;;;;;;;78.25;41.83;;;;;;;1.00;76.91;102420.45;1664219;84;21082;-88
2022/12/04 03:38:15;;;;;;;77.35;42.88;;;;;;;0.99;76.86;102400.47;1699007;84;21717;-88
2022/12/04 03:41:05;;;;;;;81.78;42.90;;;;;;;0.97;76.84;102404.21;1683553;84;21976;-88
2022/12/04 03:43:58;;;;;;;81.50;45.43;;;;;;;0.93;76.78;102407.30;1703999;84;21098;-88
2022/12/04 03:46:33;;;;;;;80.80;43.48;;;;;;;0.91;76.93;102402.37;1694574;82;21071;-87
2022/12/04 03:49:30;;;;;;;87.57;47.05;;;;;;;0.90;76.96;102403.13;1695918;82;20999;-88
2022/12/04 03:52:04;;;;;;;73.95;41.35;;;;;;;0.89;77.04;102406.11;1703001;82;21134;-84
2022/12/04 03:54:39;;;;;;;75.37;41.02;;;;;;;0.93;77.15;102404.31;1702774;84;22187;-87
2022/12/04 03:57:10;;;;;;;75.32;42.83;;;;;;;0.92;77.13;102396.39;1691512;84;21075;-83
2022/12/04 03:59:50;;;;;;;78.20;42.65;;;;;;;0.91;77.20;102401.08;1705534;79;21682;-84
2022/12/04 04:02:18;;;;;;;79.00;43.40;;;;;;;0.92;77.21;102402.87;1808387;78;21536;-84
2022/12/04 04:04:48;;;;;;;84.15;44.53;;;;;;;0.93;77.30;102402.12;1804969;78;21132;-87
2022/12/04 04:07:23;;;;;;;83.33;44.95;;;;;;;0.92;77.30;102403.81;1809582;78;21867;-88
2022/12/04 04:09:53;;;;;;;74.32;42.43;;;;;;;0.93;77.33;102408.20;1803612;78;21560;-88
2022/12/04 04:12:28;;;;;;;76.37;42.60;;;;;;;0.95;77.44;102409.25;1815717;78;21061;-88
2022/12/04 04:26:22;;;;;;;76.17;42.08;;;;;;;0.78;77.59;102401.64;1805497;77;21044;-88
2022/12/04 04:28:48;;;;;;;82.02;45.05;;;;;;;0.77;77.73;102408.91;1809138;77;21487;-88
2022/12/04 04:31:42;;;;;;;81.72;45.95;;;;;;;0.78;77.82;102409.41;1808499;79;21642;-88
2022/12/04 04:34:32;;;;;;;80.03;46.37;;;;;;;0.82;77.93;102402.83;1826325;77;21740;-88
2022/12/04 04:37:21;;;;;;;68.65;38.70;;;;;;;0.82;77.88;102398.94;1805346;79;21051;-88
2022/12/04 04:40:26;;;;;;;85.53;43.98;;;;;;;0.79;77.89;102398.29;1825832;77;21035;-88
2022/12/04 04:43:22;;;;;;;78.47;42.85;;;;;;;0.74;78.06;102403.03;1808368;77;21091;-88
2022/12/04 04:46:04;;;;;;;83.20;44.30;;;;;;;0.75;78.14;102401.34;1814478;77;21054;-89
2022/12/04 04:48:40;;;;;;;91.37;47.43;;;;;;;0.76;78.22;102396.31;1805977;77;21807;-90
2022/12/04 04:51:06;;;;;;;88.20;44.88;;;;;;;0.76;78.27;102397.61;1744119;81;21389;-89
2022/12/04 04:53:36;;;;;;;86.92;47.15;;;;;;;0.76;78.35;102392.81;1776557;79;21532;-88
2022/12/04 04:56:05;;;;;;;83.17;45.58;;;;;;;0.79;78.52;102390.52;1805866;79;21078;-88
2022/12/04 04:58:38;;;;;;;81.02;45.67;;;;;;;0.82;78.55;102383.39;1805729;79;21703;-88
2022/12/04 05:01:18;;;;;;;87.15;47.23;;;;;;;0.86;78.60;102396.75;1806760;77;22921;-84
2022/12/04 05:03:45;;;;;;;84.87;44.30;;;;;;;0.93;78.71;102391.75;1810405;77;21082;-84
2022/12/04 05:06:18;;;;;;;81.22;44.90;;;;;;;0.97;78.62;102395.13;1807032;78;21868;-85
2022/12/04 05:08:48;;;;;;;;;;;;;;;0.98;78.58;102393.08;1811317;77;21074;-84
2022/12/04 05:11:15;;;;;;;76.70;43.38;;;;;;;0.95;78.54;102391.09;1814155;77;37037;-85
2022/12/04 05:13:44;;;;;;;80.87;45.00;;;;;;;0.92;78.47;102389.91;1805559;78;21867;-87
2022/12/04 05:16:16;;;;;;;85.83;48.17;;;;;;;0.86;78.59;102390.27;1807274;78;21059;-87
2022/12/04 05:21:29;;;;;;;80.72;44.88;;;;;;;0.89;78.75;102385.38;1806049;79;21123;-84
2022/12/04 05:23:56;;;;;;;85.87;46.90;;;;;;;0.86;78.67;102389.37;1817395;77;21018;-85
2022/12/04 05:26:31;;;;;;;84.20;45.15;;;;;;;0.87;78.81;102389.52;1806788;79;21737;-87
2022/12/04 05:28:58;;;;;;;85.45;45.65;;;;;;;0.83;78.81;102390.02;1807247;77;21853;-87
2022/12/04 05:31:25;;;;;;;79.70;44.77;;;;;;;0.84;78.90;102385.73;1806276;79;21024;-87
2022/12/04 05:33:52;;;;;;;82.78;43.87;;;;;;;0.86;79.00;102394.55;1806049;79;21060;-87
2022/12/04 05:36:19;;;;;;;86.53;44.50;;;;;;;0.89;79.14;102396.14;1807774;79;21053;-85
2022/12/04 05:38:46;;;;;;;82.08;43.35;;;;;;;0.94;79.12;102398.77;1805173;79;21090;-84
2022/12/04 05:41:14;;;;;;;85.55;45.10;;;;;;;0.91;79.04;102403.27;1807862;79;21766;-87
2022/12/04 05:43:41;;;;;;;80.30;44.45;;;;;;;0.92;79.16;102401.22;1812351;77;21964;-84
2022/12/04 05:46:07;;;;;;;74.37;42.55;;;;;;;0.98;79.32;102404.75;1811084;77;21067;-85
2022/12/04 05:48:34;;;;;;;78.40;43.17;;;;;;;1.02;79.28;102396.86;1808772;77;21053;-88
2022/12/04 05:51:05;;;;;;;79.10;44.27;;;;;;;1.03;79.21;102398.27;1805787;79;22560;-84
2022/12/04 05:53:32;;;;;;;76.97;42.75;;;;;;;1.01;79.14;102397.62;1805308;79;21089;-83
2022/12/04 05:56:00;;;;;;;76.85;43.08;;;;;;;1.01;79.19;102401.51;1807963;79;21027;-83
2022/12/04 05:58:35;;;;;;;72.85;40.83;;;;;;;1.04;79.31;102400.11;1812383;77;21040;-86
2022/12/04 06:01:25;;;;;;;77.67;42.70;;;;;;;1.06;79.28;102402.45;1817154;77;21046;-88
2022/12/04 06:03:52;;;;;;;79.90;44.63;;;;;;;1.04;79.27;102392.33;1818336;77;21740;-87
2022/12/04 06:06:23;;;;;;;83.82;45.30;;;;;;;1.06;79.34;102390.78;1818444;77;21035;-85
2022/12/04 06:08:51;;;;;;;77.50;42.30;;;;;;;1.04;79.31;102392.72;1813934;77;21997;-84
2022/12/04 06:11:22;;;;;;;76.67;43.17;;;;;;;1.07;79.41;102392.97;1804589;79;21071;-88
2022/12/04 06:13:51;;;;;;;78.25;42.53;;;;;;;1.07;79.40;102392.97;1806727;79;21550;-84
2022/12/04 06:16:23;;;;;;;85.65;45.48;;;;;;;1.10;79.46;102389.37;1806912;79;22598;-87
2022/12/04 06:18:52;;;;;;;83.67;44.20;;;;;;;1.07;79.40;102391.31;1807140;78;21628;-87
2022/12/04 06:21:21;;;;;;;78.65;41.15;;;;;;;1.04;79.40;102396.22;1808076;79;21027;-85
2022/12/04 06:23:48;;;;;;;76.60;41.65;;;;;;;1.02;79.56;102392.58;1817014;77;21015;-88
2022/12/04 06:26:15;;;;;;;81.45;44.33;;;;;;;1.03;79.64;102396.07;1806557;79;21579;-87
2022/12/04 06:28:42;;;;;;;88.87;46.02;;;;;;;1.04;79.70;102394.92;1810742;77;21785;-87
2022/12/04 06:31:17;;;;;;;78.60;45.15;;;;;;;1.07;79.78;102400.39;1812318;77;21047;-89
2022/12/04 06:33:44;;;;;;;89.60;49.42;;;;;;;1.11;79.80;102398.59;1806949;79;21321;-88
2022/12/04 06:36:17;;;;;;;84.05;44.40;;;;;;;1.10;79.70;102395.45;1806399;78;21068;-85
2022/12/04 06:38:44;;;;;;;79.07;42.30;;;;;;;1.11;79.79;102409.36;1812890;77;21006;-85
2022/12/04 06:41:13;;;;;;;80.03;42.88;;;;;;;1.13;79.86;102403.92;1808072;79;21808;-85
2022/12/04 06:43:46;;;;;;;83.22;46.37;;;;;;;1.16;79.89;102417.14;1813257;79;21272;-88
2022/12/04 06:46:15;;;;;;;86.70;44.87;;;;;;;1.23;79.97;102418.61;1808479;77;21023;-90
2022/12/04 06:48:42;;;;;;;83.47;43.50;;;;;;;1.28;79.97;102421.24;1807089;78;21523;-88
2022/12/04 06:51:25;;;;;;;81.45;44.67;;;;;;;1.31;79.86;102412.41;1806984;78;21019;-87
2022/12/04 06:53:51;;;;;;;81.13;43.47;;;;;;;1.32;79.88;102407.37;1812518;78;21765;-84
2022/12/04 06:56:20;;;;;;;81.65;43.40;;;;;;;1.32;79.75;102406.07;1806658;78;21572;-84
2022/12/04 06:58:49;;;;;;;80.75;44.18;;;;;;;1.28;79.81;102401.78;1808456;79;21627;-88
2022/12/04 07:01:24;;;;;;;86.45;45.50;;;;;;;1.35;79.99;102406.36;1811149;77;21028;-88
2022/12/04 07:03:51;;;;;;;88.20;45.38;;;;;;;1.38;79.90;102406.10;1811323;77;21265;-87
2022/12/04 07:06:31;;;;;;;81.35;42.75;;;;;;;1.42;79.95;102403.00;1806942;79;22538;-88
2022/12/04 07:13:04;;;;;;;82.72;41.60;;;;;;;1.49;79.81;102409.25;1807853;79;21162;-89
2022/12/04 07:22:14;;;;;;;79.65;41.98;;;;;;;1.46;79.78;102412.47;1804139;78;21077;-91
2022/12/04 07:28:50;;;;;;;85.03;42.70;;;;;;;1.32;79.83;102391.80;1807720;79;21003;-90
2022/12/04 07:31:29;;;;;;;76.87;40.70;;;;;;;1.39;79.94;102410.13;1801764;79;21110;-92
2022/12/04 07:34:11;;;;;;;82.15;43.65;;;;;;;1.42;80.02;102406.89;1801177;79;21118;-90
2022/12/04 07:36:39;;;;;;;81.00;42.83;;;;;;;1.42;80.04;102411.68;1808065;78;21414;-84
2022/12/04 07:39:18;;;;;;;82.85;42.85;;;;;;;1.44;80.10;102404.03;1806022;78;21045;-90
2022/12/04 07:53:51;;;;;;;78.70;42.80;;;;;;;1.54;80.06;102413.17;1807960;78;21054;-90
2022/12/04 07:57:05;;;;;;;79.60;42.73;;;;;;;1.59;80.18;102412.27;1813570;78;21000;-92
2022/12/04 07:59:31;;;;;;;80.72;42.65;;;;;;;1.64;80.20;102409.30;1774351;79;21120;-88
2022/12/04 08:01:59;;;;;;;84.47;44.55;;;;;;;1.64;80.10;102398.91;1810052;77;21035;-86
2022/12/04 08:04:38;;;;;;;79.85;40.73;;;;;;;1.62;80.07;102395.28;1807462;78;21018;-90
2022/12/04 08:22:25;;;;;;;94.42;47.65;;;;;;;1.73;80.26;102386.73;1810903;79;21039;-91
2022/12/04 08:24:54;;;;;;;88.27;46.90;;;;;;;1.75;80.17;102392.97;1763469;81;21798;-86
2022/12/04 08:27:22;;;;;;;85.05;44.65;;;;;;;1.78;80.22;102394.01;1806886;79;21253;-87
2022/12/04 08:30:30;;;;;;;84.47;43.95;;;;;;;1.80;80.24;102395.05;1811255;79;21035;-89
2022/12/04 08:33:12;;;;;;;88.58;45.28;;;;;;;1.82;80.18;102400.92;1786414;79;21567;-88
2022/12/04 08:35:44;;;;;;;84.35;42.67;;;;;;;1.75;80.18;102389.08;1804837;79;21047;-91
2022/12/04 08:38:39;;;;;;;84.45;43.55;;;;;;;1.90;80.15;102411.97;1803257;79;22605;-93
2022/12/04 08:41:13;;;;;;;84.85;44.83;;;;;;;1.92;80.18;102404.81;1805703;79;21045;-87
2022/12/04 08:43:41;;;;;;;90.85;45.12;;;;;;;1.96;80.13;102390.81;1805632;79;21031;-90
2022/12/04 08:46:16;;;;;;;84.50;45.65;;;;;;;1.92;79.91;102394.83;1801397;79;21076;-90
2022/12/04 08:49:06;;;;;;;84.67;44.30;;;;;;;1.87;79.95;102406.09;1809353;79;21081;-90
2022/12/04 08:55:51;;;;;;;83.78;42.13;;;;;;;1.99;80.15;102406.63;1805194;78;21078;-91
2022/12/04 08:58:35;;;;;;;83.20;44.40;;;;;;;1.97;79.97;102410.42;1801499;79;21052;-89
2022/12/04 09:01:36;;;;;;;87.55;44.45;;;;;;;1.95;80.08;102406.75;1805572;78;21054;-94
2022/12/04 09:04:08;;;;;;;84.20;42.60;;;;;;;2.05;80.31;102409.39;1807422;79;21027;-88
2022/12/04 09:06:53;;;;;;;82.40;42.30;;;;;;;2.17;80.32;102404.72;1803505;79;21758;-90
2022/12/04 09:09:20;;;;;;;77.62;40.08;;;;;;;2.23;80.17;102403.94;1800333;79;21056;-90
2022/12/04 09:11:47;;;;;;;87.25;47.60;;;;;;;2.31;80.23;102402.92;1801464;79;21376;-87
2022/12/04 09:14:14;;;;;;;80.00;41.58;;;;;;;2.37;80.08;102403.42;1801322;79;21035;-88
2022/12/04 09:16:42;;;;;;;84.83;40.98;;;;;;;2.38;79.93;102400.42;1804961;78;21047;-87
2022/12/04 09:19:15;;;;;;;81.60;43.42;;;;;;;2.45;79.92;102402.77;1804031;79;21780;-86
2022/12/04 09:21:42;;;;;;;73.78;39.20;;;;;;;2.49;79.91;102403.14;1802551;78;21168;-88
2022/12/04 09:24:09;;;;;;;87.12;45.63;;;;;;;2.56;79.84;102406.28;1814512;77;21003;-89
2022/12/04 09:26:36;;;;;;;78.47;41.37;;;;;;;2.53;79.54;102406.91;1813411;77;21062;-86
2022/12/04 09:29:11;;;;;;;78.80;42.20;;;;;;;2.51;79.58;102398.98;1811146;77;21059;-92
2022/12/04 09:31:45;;;;;;;77.65;39.23;;;;;;;2.47;79.45;102396.91;1807434;79;21922;-92
2022/12/04 09:34:13;;;;;;;87.53;43.33;;;;;;;2.47;79.47;102386.91;1747905;81;21112;-85
2022/12/04 09:36:40;;;;;;;87.10;40.83;;;;;;;2.45;79.44;102393.27;1809421;78;21165;-85
2022/12/04 09:39:08;;;;;;;88.90;42.80;;;;;;;2.48;79.52;102387.45;1789544;77;21038;-85
2022/12/04 09:42:06;;;;;;;87.47;43.30;;;;;;;2.39;79.35;102390.17;1814097;77;21043;-89
2022/12/04 09:44:44;;;;;;;78.10;41.60;;;;;;;2.42;79.54;102381.34;1806208;78;21032;-89
2022/12/04 09:47:42;;;;;;;75.87;39.55;;;;;;;2.39;79.50;102394.06;1806999;79;21015;-87
2022/12/04 09:50:38;;;;;;;77.08;39.98;;;;;;;2.43;79.57;102390.94;1808169;77;21011;-89
2022/12/04 09:53:18;;;;;;;77.75;41.13;;;;;;;2.44;79.51;102386.64;1791320;79;22267;-87
2022/12/04 09:56:09;;;;;;;73.57;40.05;;;;;;;2.39;79.44;102383.67;1808264;79;21082;-86
2022/12/04 09:58:55;;;;;;;79.67;40.75;;;;;;;2.41;79.48;102389.00;1806698;77;22545;-85
2022/12/04 10:01:33;;;;;;;76.75;39.83;;;;;;;2.39;79.45;102386.67;1757183;80;21042;-86
2022/12/04 10:04:00;;;;;;;74.92;39.75;;;;;;;2.33;79.40;102383.16;1770395;80;21676;-87
2022/12/04 10:06:38;;;;;;;75.75;39.45;;;;;;;2.36;79.48;102386.40;1748643;80;21073;-87
2022/12/04 10:09:11;;;;;;;72.53;39.05;;;;;;;2.37;79.53;102382.64;1732154;80;21625;-85
2022/12/04 10:12:08;;;;;;;77.53;39.48;;;;;;;2.40;79.54;102381.97;1753836;80;21759;-84
2022/12/04 10:15:01;;;;;;;70.32;38.38;;;;;;;2.46;79.63;102381.17;1776027;80;21054;-87
2022/12/04 10:17:54;;;;;;;73.57;36.77;;;;;;;2.53;79.68;102375.35;1743921;80;21725;-85
2022/12/04 10:20:49;;;;;;;69.40;37.55;;;;;;;2.63;79.56;102374.82;1762545;80;21086;-89
2022/12/04 10:23:26;;;;;;;68.10;36.17;;;;;;;2.68;79.55;102373.48;1749950;80;21066;-87
2022/12/04 10:25:56;;;;;;;66.62;36.42;;;;;;;2.72;79.43;102362.55;1725866;81;22196;-88
2022/12/04 10:28:31;;;;;;;67.45;35.13;;;;;;;2.72;79.31;102365.16;1724818;82;21144;-88
2022/12/04 10:31:01;;;;;;;70.42;35.43;;;;;;;2.76;79.38;102362.05;1720297;81;21161;-89
2022/12/04 10:33:52;;;;;;;67.92;36.17;;;;;;;2.76;79.23;102360.75;1693966;83;21172;-85
2022/12/04 10:36:30;;;;;;;73.28;37.42;;;;;;;2.74;79.11;102364.92;1690357;83;21095;-85
2022/12/04 10:39:12;;;;;;;70.30;35.23;;;;;;;2.70;79.08;102360.22;1752921;80;21754;-86
2022/12/04 10:42:00;;;;;;;73.90;36.05;;;;;;;2.63;79.16;102353.62;1793039;79;21113;-87
2022/12/04 10:44:27;;;;;;;70.70;35.45;;;;;;;2.56;79.10;102335.70;1788190;79;21064;-86
2022/12/04 10:47:05;;;;;;;66.12;35.15;;;;;;;2.60;79.10;102350.75;1783608;79;21623;-87
2022/12/04 10:49:33;;;;;;;69.07;35.30;;;;;;;2.60;79.21;102354.66;1778669;79;21058;-87
2022/12/04 10:52:00;;;;;;;75.85;37.93;;;;;;;2.61;79.25;102353.89;1789411;79;21754;-84
2022/12/04 10:54:48;;;;;;;74.45;37.25;;;;;;;2.67;79.36;102354.79;1794309;79;21606;-87
2022/12/04 10:57:15;;;;;;;77.53;39.08;;;;;;;2.68;79.22;102352.69;1795420;79;21639;-85
2022/12/04 10:59:53;;;;;;;83.82;44.48;;;;;;;2.71;79.30;102349.05;1793736;79;21601;-89
2022/12/04 11:02:28;;;;;;;79.27;42.35;;;;;;;2.76;79.34;102346.81;1783230;79;21055;-88
2022/12/04 11:05:41;;;;;;;78.92;41.35;;;;;;;2.77;79.16;102350.84;1793052;79;22641;-89
2022/12/04 11:08:23;;;;;;;80.57;41.35;;;;;;;2.76;79.17;102342.91;1794208;79;21039;-93
2022/12/04 11:11:02;;;;;;;79.80;41.08;;;;;;;2.76;79.19;102341.61;1793252;79;21052;-86
2022/12/04 11:13:29;;;;;;;85.17;41.85;;;;;;;2.73;79.15;102340.98;1773414;79;21053;-88
2022/12/04 11:20:18;;;;;;;82.15;40.92;;;;;;;2.60;78.90;102331.26;1794331;79;21248;-88
2022/12/04 11:22:56;;;;;;;82.70;42.70;;;;;;;2.55;79.17;102328.66;1791808;79;21099;-90
2022/12/04 11:25:37;;;;;;;82.10;43.42;;;;;;;2.57;79.32;102332.70;1799766;79;21044;-90
2022/12/04 11:28:06;;;;;;;79.95;42.78;;;;;;;2.55;79.21;102329.06;1800760;79;21563;-89
2022/12/04 11:30:36;;;;;;;85.72;44.38;;;;;;;2.51;79.35;102327.50;1728177;80;21026;-86
2022/12/04 11:33:11;;;;;;;89.55;46.23;;;;;;;2.52;79.36;102324.53;1798084;78;21701;-83
2022/12/04 11:35:51;;;;;;;86.80;45.83;;;;;;;2.49;79.40;102325.56;1805249;78;21029;-89
2022/12/04 11:38:19;;;;;;;77.00;44.25;;;;;;;2.49;79.40;102326.47;1802412;77;21042;-87
2022/12/04 11:40:51;;;;;;;77.87;41.37;;;;;;;2.48;79.36;102320.77;1790812;79;21087;-87
2022/12/04 11:43:19;;;;;;;77.87;41.50;;;;;;;2.48;79.40;102318.56;1827159;78;21105;-88
2022/12/04 11:46:08;;;;;;;78.22;40.92;;;;;;;2.42;79.31;102317.67;1826215;77;21830;-90
2022/12/04 11:48:44;;;;;;;82.72;42.95;;;;;;;2.43;79.54;102322.47;1800943;79;21073;-86
2022/12/04 11:51:35;;;;;;;82.25;41.23;;;;;;;2.43;79.55;102323.37;1809482;78;21076;-89
2022/12/04 11:54:35;;;;;;;79.40;41.37;;;;;;;2.47;79.61;102320.63;1801811;79;21219;-88
2022/12/04 11:57:44;;;;;;;79.42;39.65;;;;;;;2.43;79.50;102318.17;1787372;78;21023;-88
2022/12/04 12:00:20;;;;;;;77.72;39.38;;;;;;;2.40;79.55;102320.91;1802217;78;21812;-88
2022/12/04 12:03:32;;;;;;;77.17;38.38;;;;;;;2.39;79.58;102324.30;1804524;78;21141;-91
2022/12/04 12:10:43;;;;;;;82.82;40.95;;;;;;;2.34;79.61;102323.90;1801184;79;21052;-90
2022/12/04 12:13:41;;;;;;;81.90;42.17;;;;;;;2.33;79.70;102323.00;1823869;78;21055;-84
2022/12/04 12:16:35;;;;;;;79.40;41.58;;;;;;;2.32;79.72;102321.56;1803863;79;22653;-86
2022/12/04 12:19:29;;;;;;;94.32;45.45;;;;;;;2.33;79.79;102321.70;1804474;79;21011;-87
2022/12/04 12:22:32;;;;;;;80.60;40.17;;;;;;;2.33;79.80;102320.80;1805537;79;21025;-88
2022/12/04 12:25:07;;;;;;;81.00;41.48;;;;;;;2.34;79.77;102325.20;1801036;79;21056;-84
2022/12/04 12:31:31;;;;;;;87.37;42.88;;;;;;;2.32;79.89;102325.46;1807365;78;20992;-93
2022/12/04 12:34:51;;;;;;;73.02;40.10;;;;;;;2.31;79.77;102321.97;1803073;79;21059;-88
2022/12/04 12:38:10;;;;;;;80.12;41.00;;;;;;;2.31;79.88;102323.27;1676414;85;21223;-91
2022/12/04 12:40:46;;;;;;;74.92;38.92;;;;;;;2.29;79.81;102315.73;1676423;85;21086;-90
2022/12/04 12:43:32;;;;;;;72.97;38.08;;;;;;;2.29;79.82;102315.73;1676407;85;21115;-91
2022/12/04 12:46:19;;;;;;;74.37;39.20;;;;;;;2.29;79.88;102310.91;1633873;85;21402;-88
2022/12/04 12:48:52;;;;;;;72.37;36.23;;;;;;;2.31;79.92;102314.57;1647959;85;21179;-87
2022/12/04 12:51:49;;;;;;;73.22;38.92;;;;;;;2.31;79.89;102316.77;1642504;86;28474;-87
2022/12/04 12:54:46;;;;;;;69.22;38.55;;;;;;;2.30;79.88;102312.34;1665507;85;21097;-88
2022/12/04 12:57:37;;;;;;;65.92;36.30;;;;;;;2.27;79.86;102313.77;1663187;85;21175;-88
2022/12/04 13:00:16;;;;;;;73.55;38.65;;;;;;;2.24;79.80;102306.64;1604036;85;21678;-86
2022/12/04 13:02:48;;;;;;;70.10;36.83;;;;;;;2.18;79.80;102306.50;1669558;85;21083;-86
2022/12/04 13:05:19;;;;;;;69.72;38.30;;;;;;;2.13;79.79;102318.72;1664280;85;21675;-87
2022/12/04 13:08:17;;;;;;;77.78;37.45;;;;;;;2.13;79.96;102316.52;1670296;85;21119;-88
2022/12/04 13:10:51;;;;;;;69.95;35.85;;;;;;;2.12;79.93;102310.80;1633056;86;21116;-87
2022/12/04 13:13:37;;;;;;;59.63;33.67;;;;;;;2.11;79.96;102315.48;1639408;86;21108;-81
2022/12/04 13:16:26;;;;;;;66.60;34.78;;;;;;;2.09;80.00;102312.75;1684184;83;22722;-82